createdAt,value
2022-10-05T00:02:32.183Z,5.40
2022-10-05T00:07:33.563Z,5.45
2022-10-05T00:12:34.963Z,4.93
2022-10-05T00:17:36.294Z,5.53
2022-10-05T00:22:37.608Z,5.75
2022-10-05T00:27:39.103Z,5.55
2022-10-05T00:32:40.467Z,6.40
2022-10-05T00:37:42.206Z,5.38
2022-10-05T00:43:09.880Z,5.95
2022-10-05T00:48:36.923Z,6.53
2022-10-05T00:53:47.448Z,6.32
2022-10-05T00:59:17.794Z,5.97
2022-10-05T01:04:26.653Z,6.03
2022-10-05T01:09:39.749Z,5.78
2022-10-05T01:15:01.259Z,6.00
2022-10-05T01:20:09.742Z,6.03
2022-10-05T01:25:34.843Z,6.50
2022-10-05T01:31:05.756Z,6.35
2022-10-05T01:36:22.547Z,6.00
2022-10-05T01:41:56.114Z,5.60
2022-10-05T01:47:07.606Z,6.88
2022-10-05T01:52:27.678Z,6.25
2022-10-05T01:58:07.689Z,5.75
2022-10-05T02:08:34.871Z,6.47
2022-10-05T02:13:47.357Z,6.57
2022-10-05T02:19:08.086Z,5.47
2022-10-05T02:24:17.140Z,6.13
2022-10-05T02:29:22.516Z,5.97
2022-10-05T02:34:30.005Z,5.82
2022-10-05T02:39:59.229Z,5.53
2022-10-05T02:45:18.586Z,6.57
2022-10-05T02:50:32.232Z,6.00
2022-10-05T02:55:42.771Z,6.47
2022-10-05T03:01:02.080Z,5.70
2022-10-05T03:06:10.686Z,7.33
2022-10-05T03:11:27.000Z,5.88
2022-10-05T03:16:47.326Z,6.68
2022-10-05T03:22:04.162Z,6.32
2022-10-05T03:27:15.484Z,6.07
2022-10-05T03:32:41.163Z,6.05
2022-10-05T03:38:07.948Z,6.53
2022-10-05T03:43:30.708Z,6.72
2022-10-05T03:49:14.151Z,6.90
2022-10-05T03:54:20.655Z,6.85
2022-10-05T03:59:37.852Z,7.30
2022-10-05T04:05:02.599Z,5.90
2022-10-05T04:10:13.687Z,7.00
2022-10-05T04:15:19.349Z,6.72
2022-10-05T04:20:27.263Z,6.55
2022-10-05T04:25:47.669Z,7.63
2022-10-05T04:30:52.060Z,7.40
2022-10-05T04:35:59.340Z,7.15
2022-10-05T04:41:25.510Z,6.97
2022-10-05T04:46:33.436Z,6.53
2022-10-05T04:51:52.046Z,6.57
2022-10-05T04:56:59.246Z,6.70
2022-10-05T05:02:05.147Z,6.00
2022-10-05T05:07:40.555Z,6.68
2022-10-05T05:12:59.280Z,6.88
2022-10-05T05:18:09.779Z,6.38
2022-10-05T05:23:40.927Z,7.22
2022-10-05T05:29:21.869Z,6.03
2022-10-05T05:34:29.180Z,6.70
2022-10-05T05:39:49.344Z,7.28
2022-10-05T05:44:53.820Z,6.97
2022-10-05T05:50:23.074Z,7.20
2022-10-05T05:55:35.149Z,7.57
2022-10-05T06:00:57.352Z,6.95
2022-10-05T06:06:02.362Z,6.78
2022-10-05T06:17:12.015Z,6.57
2022-10-05T06:22:17.318Z,7.03
2022-10-05T06:27:36.815Z,5.80
2022-10-05T06:32:44.313Z,7.20
2022-10-05T06:38:10.910Z,6.50
2022-10-05T06:43:18.361Z,6.93
2022-10-05T06:48:45.649Z,6.32
2022-10-05T06:54:05.357Z,6.05
2022-10-05T06:59:14.797Z,6.55
2022-10-05T07:04:16.189Z,6.93
2022-10-05T07:09:38.726Z,6.05
2022-10-05T07:15:04.250Z,5.43
2022-10-05T07:20:21.121Z,6.13
2022-10-05T07:26:03.443Z,7.10
2022-10-05T07:31:25.055Z,5.72
2022-10-05T07:36:44.779Z,5.97
2022-10-05T07:42:42.448Z,5.75
2022-10-05T07:47:58.614Z,5.53
2022-10-05T07:53:14.249Z,6.28
2022-10-05T07:58:23.319Z,6.63
2022-10-05T08:03:38.321Z,5.93
2022-10-05T08:08:52.757Z,5.88
2022-10-05T08:14:19.020Z,6.15
2022-10-05T08:19:29.381Z,5.60
2022-10-05T08:24:44.001Z,6.50
2022-10-05T08:30:00.729Z,6.07
2022-10-05T08:35:08.089Z,6.45
2022-10-05T08:40:18.639Z,5.80
2022-10-05T08:45:46.473Z,7.43
2022-10-05T08:51:12.316Z,6.32
2022-10-05T08:56:17.623Z,6.45
2022-10-05T09:01:49.531Z,6.25
2022-10-05T09:07:04.071Z,6.80
2022-10-05T09:12:27.311Z,7.15
2022-10-05T09:17:39.539Z,6.70
2022-10-05T09:23:02.406Z,6.45
2022-10-05T09:28:21.245Z,6.30
2022-10-05T09:33:53.600Z,6.72
2022-10-05T09:39:13.924Z,5.68
2022-10-05T09:44:46.267Z,5.45
2022-10-05T09:50:38.810Z,4.85
2022-10-05T09:56:11.434Z,4.40
2022-10-05T10:01:41.265Z,4.25
2022-10-05T10:06:54.903Z,4.30
2022-10-05T10:12:37.589Z,3.88
2022-10-05T10:18:24.041Z,3.60
2022-10-05T10:23:47.101Z,5.00
2022-10-05T10:29:07.125Z,4.30
2022-10-05T10:34:31.529Z,4.88
2022-10-05T10:39:49.327Z,3.97
2022-10-05T10:45:05.207Z,3.63
2022-10-05T10:57:20.438Z,3.08
2022-10-05T11:02:44.677Z,2.97
2022-10-05T11:08:06.751Z,3.60
2022-10-05T11:13:20.314Z,3.38
2022-10-05T11:18:49.808Z,3.67
2022-10-05T11:29:36.078Z,3.28
2022-10-05T11:35:08.360Z,3.53
2022-10-05T11:40:32.826Z,2.67
2022-10-05T11:45:58.238Z,2.45
2022-10-05T11:51:32.601Z,2.30
2022-10-05T11:57:04.825Z,2.08
2022-10-05T12:02:44.864Z,1.70
2022-10-05T12:07:59.648Z,1.92
2022-10-05T12:13:04.335Z,1.67
2022-10-05T12:18:13.944Z,1.73
2022-10-05T12:23:24.459Z,1.85
2022-10-05T12:28:58.133Z,1.80
2022-10-05T12:34:13.792Z,1.90
2022-10-05T12:39:23.993Z,1.55
2022-10-05T12:44:34.613Z,1.65
2022-10-05T12:49:40.346Z,1.60
2022-10-05T12:55:00.747Z,1.77
2022-10-05T13:00:11.196Z,1.75
2022-10-05T13:05:27.944Z,1.90
2022-10-05T13:10:44.476Z,1.80
2022-10-05T13:16:15.683Z,1.55
2022-10-05T13:21:27.013Z,1.77
2022-10-05T13:26:39.371Z,1.52
2022-10-05T13:31:50.990Z,1.65
2022-10-05T13:37:20.356Z,1.50
2022-10-05T13:42:28.013Z,1.50
2022-10-05T13:47:47.671Z,1.60
2022-10-05T13:53:29.135Z,1.55
2022-10-05T13:58:48.718Z,1.55
2022-10-05T14:04:05.784Z,1.70
2022-10-05T14:09:33.555Z,1.73
2022-10-05T14:15:06.143Z,1.60
2022-10-05T14:20:21.647Z,1.60
2022-10-05T14:25:54.187Z,2.00
2022-10-05T14:31:02.558Z,2.03
2022-10-05T14:36:12.544Z,1.90
2022-10-05T14:41:22.025Z,2.05
2022-10-05T14:51:33.463Z,2.08
2022-10-05T14:57:00.498Z,1.85
2022-10-05T15:02:26.411Z,2.05
2022-10-05T15:07:39.654Z,2.05
2022-10-05T15:12:44.624Z,2.20
2022-10-05T15:18:00.793Z,2.03
2022-10-05T15:23:19.637Z,1.92
2022-10-05T15:28:46.462Z,1.80
2022-10-05T15:33:58.559Z,1.95
2022-10-05T15:39:47.493Z,2.35
2022-10-05T15:45:26.933Z,2.25
2022-10-05T15:55:36.312Z,2.30
2022-10-05T16:00:56.311Z,2.03
2022-10-05T16:06:08.761Z,2.35
2022-10-05T16:11:21.478Z,1.98
2022-10-05T16:16:51.645Z,2.28
2022-10-05T16:22:25.455Z,2.55
2022-10-05T16:27:40.289Z,2.33
2022-10-05T16:33:12.587Z,2.33
2022-10-05T16:39:14.741Z,2.80
2022-10-05T16:44:41.778Z,3.10
2022-10-05T16:56:05.136Z,2.30
2022-10-05T17:01:28.556Z,2.67
2022-10-05T17:06:59.280Z,2.53
2022-10-05T17:12:23.137Z,2.53
2022-10-05T17:18:01.936Z,2.13
2022-10-05T17:23:25.068Z,1.40
2022-10-05T17:28:41.171Z,1.98
2022-10-05T17:34:25.178Z,2.13
2022-10-05T17:45:36.258Z,2.78
2022-10-05T17:50:52.116Z,2.22
2022-10-05T17:56:04.494Z,3.13
2022-10-05T18:01:30.415Z,2.85
2022-10-05T18:06:39.371Z,2.30
2022-10-05T18:12:28.430Z,2.87
2022-10-05T18:17:46.208Z,2.50
2022-10-05T18:22:51.960Z,2.47
2022-10-05T18:28:23.660Z,2.88
2022-10-05T18:39:42.108Z,2.40
2022-10-05T18:45:03.714Z,2.22
2022-10-05T18:50:27.481Z,2.20
2022-10-05T19:51:59.150Z,2.50
2022-10-05T20:02:32.524Z,2.20
2022-10-05T20:07:40.026Z,2.70
2022-10-05T20:13:00.094Z,2.20
2022-10-05T20:18:44.556Z,1.83
2022-10-05T20:23:53.838Z,2.13
2022-10-05T20:28:58.417Z,2.33
2022-10-05T20:34:15.551Z,2.30
2022-10-05T20:39:27.111Z,1.63
2022-10-05T20:44:28.976Z,1.90
2022-10-05T20:49:32.058Z,2.00
2022-10-05T20:54:33.471Z,2.13
2022-10-05T20:59:36.007Z,2.33
2022-10-05T21:04:41.434Z,1.95
2022-10-05T21:09:43.619Z,2.08
2022-10-05T21:14:44.986Z,2.08
2022-10-05T21:19:46.860Z,2.10
2022-10-05T21:24:48.575Z,1.98
2022-10-05T21:29:49.922Z,1.92
2022-10-05T21:34:51.307Z,1.85
2022-10-05T21:39:52.653Z,1.80
2022-10-05T21:44:54.031Z,2.00
2022-10-05T21:49:55.438Z,2.05
2022-10-05T21:54:56.784Z,2.00
2022-10-05T21:59:58.147Z,1.80
2022-10-05T22:04:59.505Z,2.20
2022-10-05T22:10:00.987Z,2.50
2022-10-05T22:15:02.353Z,2.40
2022-10-05T22:20:03.965Z,2.20
2022-10-05T22:25:06.078Z,1.20
2022-10-05T22:30:08.022Z,1.00
2022-10-05T22:35:11.672Z,0.90
2022-10-05T22:40:13.292Z,1.23
2022-10-05T22:45:14.699Z,0.85
2022-10-05T22:50:16.170Z,1.05
2022-10-05T22:55:17.619Z,1.60
2022-10-05T23:00:19.398Z,1.02
2022-10-05T23:05:21.951Z,1.02
2022-10-05T23:10:23.459Z,1.30
2022-10-05T23:15:25.564Z,1.35
2022-10-05T23:20:26.975Z,1.40
2022-10-05T23:25:28.327Z,1.30
2022-10-05T23:30:29.849Z,1.60
2022-10-05T23:35:31.452Z,1.30
2022-10-05T23:40:33.101Z,1.17
2022-10-05T23:45:34.491Z,1.13
2022-10-05T23:50:35.948Z,1.10
2022-10-05T23:55:37.636Z,0.90
